G. O. Sars — LMEL — position and weather

sailwx.info

Track history (hours):
 
Tides and Currents Weather Stations Pressure Air Temp Water Temp Dewpoint Dewpoint Depression Visibility Wind Speed Wind Dir Waves Ship Positions

Oceanographic research ship G. O. Sars (Norway)

Detailed information on ship capabilities available from University of Delaware's Ocean Information Center and ARCUS's ALIAS (Arctic Logistics Information and Support) project.

Last reported at 2017-Mar-26 03:33 UTC. Time now 2017-Mar-26 03:36 UTC.
Position N 70°38' E 019°55'.

Type: Other ship. MMSI: 257105000.

Date/timePositionNaut miles runAvg speedWind from/ knotsBaromVisibWave heightAir tempDewpointWater temp
2017-Mar-26 03:33N 70°38' E 019°55'6 5.9
2017-Mar-26 02:33N 70°33' E 020°01'7 6.5
2017-Mar-26 01:33N 70°26' E 020°03'6 6.5
2017-Mar-26 00:33N 70°20' E 020°05'6 6.4
2017-Mar-25 23:33N 70°14' E 020°10'8 8.1
2017-Mar-25 22:33N 70°06' E 020°11'1010.2
2017-Mar-25 21:33N 69°57' E 019°58'10 9.7
2017-Mar-25 20:32N 69°50' E 019°38'1110.6
2017-Mar-25 19:33N 69°46' E 019°09'8 8.3
2017-Mar-25 18:33N 69°39' E 018°58'0 0.0
2017-Mar-25 17:33N 69°39' E 018°58'0 0.0
2017-Mar-25 16:33N 69°39' E 018°58'0 0.0
2017-Mar-25 15:33N 69°39' E 018°58'0 0.0
2017-Mar-25 14:33N 69°39' E 018°58'0 0.0
2017-Mar-25 13:32N 69°39' E 018°58'0 0.0
2017-Mar-25 12:32N 69°39' E 018°58'0 0.0
2017-Mar-25 11:32N 69°39' E 018°58'0 0.0
2017-Mar-25 10:32N 69°39' E 018°58'0 0.0
2017-Mar-25 09:32N 69°39' E 018°58'0 0.0
2017-Mar-25 08:32N 69°39' E 018°58'0 0.0
2017-Mar-25 07:32N 69°39' E 018°58'0 0.0
2017-Mar-25 06:32N 69°39' E 018°58'0 0.0
2017-Mar-25 05:32N 69°39' E 018°58'0 0.0
2017-Mar-25 04:32N 69°39' E 018°58'0 0.0
2017-Mar-25 03:32N 69°39' E 018°58'0 0.0
2017-Mar-25 02:32N 69°39' E 018°58'0 0.0
2017-Mar-25 01:32N 69°39' E 018°58'0 0.0
2017-Mar-25 00:32N 69°39' E 018°58'0 0.0
2017-Mar-24 23:32N 69°39' E 018°58'0 0.0
2017-Mar-24 22:32N 69°39' E 018°58'0 0.0
2017-Mar-24 21:32N 69°39' E 018°58'0 0.0
2017-Mar-24 20:32N 69°39' E 018°58'0 0.0
2017-Mar-24 19:32N 69°39' E 018°58'0 0.0
2017-Mar-24 18:32N 69°39' E 018°58'0 0.0
2017-Mar-24 17:32N 69°39' E 018°58'0 0.0
2017-Mar-24 16:32N 69°39' E 018°58'0 0.0
2017-Mar-24 15:32N 69°39' E 018°58'0 0.0
2017-Mar-24 14:32N 69°39' E 018°58'0 0.0
2017-Mar-24 13:32N 69°39' E 018°58'0 0.0
2017-Mar-24 12:32N 69°39' E 018°58'0 0.0
2017-Mar-24 11:32N 69°39' E 018°58'1 0.5
2017-Mar-24 10:32N 69°39' E 018°58'0 0.0
2017-Mar-24 09:32N 69°39' E 018°58'0 0.0
2017-Mar-24 08:32N 69°39' E 018°58'0 0.2
2017-Mar-24 07:31N 69°39' E 018°59'1 0.5
2017-Mar-24 06:32N 69°39' E 018°58'0 0.0
2017-Mar-24 05:32N 69°39' E 018°58'0 0.0
2017-Mar-24 04:32N 69°39' E 018°58'0 0.0
2017-Mar-24 03:32N 69°39' E 018°58'0 0.0
2017-Mar-24 02:32N 69°39' E 018°58'0 0.0
2017-Mar-24 01:32N 69°39' E 018°58'0 0.0
2017-Mar-24 00:32N 69°39' E 018°58'0 0.0
2017-Mar-23 23:32N 69°39' E 018°58'0 0.0
2017-Mar-23 22:32N 69°39' E 018°58'0 0.0
2017-Mar-23 21:32N 69°39' E 018°58'0 0.0
2017-Mar-23 20:31N 69°39' E 018°58'0 0.0
2017-Mar-23 19:31N 69°39' E 018°58'4 3.8
2017-Mar-23 18:32N 69°42' E 019°04'0 0.0
2017-Mar-23 17:33N 69°42' E 019°04'6 5.7
2017-Mar-23 16:33N 69°47' E 019°12'1410.4
2017-Mar-23 15:10N 69°58' E 019°39'610.5
2017-Mar-23 14:33N 70°04' E 019°39'8 8.0
2017-Mar-23 13:33N 70°12' E 019°29'8 8.0
2017-Mar-23 12:33N 70°19' E 019°24'1110.5
2017-Mar-23 11:32N 70°28' E 019°05'  
Track history (hours):
 
Tides and Currents Weather Stations Pressure Air Temp Water Temp Dewpoint Dewpoint Depression Visibility Wind Speed Wind Dir Waves Ship Positions

Oceanographic research ship G. O. Sars (Norway)

Detailed information on ship capabilities available from University of Delaware's Ocean Information Center and ARCUS's ALIAS (Arctic Logistics Information and Support) project.

Last reported at 2017-Mar-26 03:33 UTC. Time now 2017-Mar-26 03:36 UTC.
Position N 70°38' E 019°55'.

Type: Other ship. MMSI: 257105000.

Date/timePositionNaut miles runAvg speedWind from/ knotsBaromVisibWave heightAir tempDewpointWater temp
2017-Mar-26 03:33N 70°38' E 019°55'6 5.9
2017-Mar-26 02:33N 70°33' E 020°01'7 6.5
2017-Mar-26 01:33N 70°26' E 020°03'6 6.5
2017-Mar-26 00:33N 70°20' E 020°05'6 6.4
2017-Mar-25 23:33N 70°14' E 020°10'8 8.1
2017-Mar-25 22:33N 70°06' E 020°11'1010.2
2017-Mar-25 21:33N 69°57' E 019°58'10 9.7
2017-Mar-25 20:32N 69°50' E 019°38'1110.6
2017-Mar-25 19:33N 69°46' E 019°09'8 8.3
2017-Mar-25 18:33N 69°39' E 018°58'0 0.0
2017-Mar-25 17:33N 69°39' E 018°58'0 0.0
2017-Mar-25 16:33N 69°39' E 018°58'0 0.0
2017-Mar-25 15:33N 69°39' E 018°58'0 0.0
2017-Mar-25 14:33N 69°39' E 018°58'0 0.0
2017-Mar-25 13:32N 69°39' E 018°58'0 0.0
2017-Mar-25 12:32N 69°39' E 018°58'0 0.0
2017-Mar-25 11:32N 69°39' E 018°58'0 0.0
2017-Mar-25 10:32N 69°39' E 018°58'0 0.0
2017-Mar-25 09:32N 69°39' E 018°58'0 0.0
2017-Mar-25 08:32N 69°39' E 018°58'0 0.0
2017-Mar-25 07:32N 69°39' E 018°58'0 0.0
2017-Mar-25 06:32N 69°39' E 018°58'0 0.0
2017-Mar-25 05:32N 69°39' E 018°58'0 0.0
2017-Mar-25 04:32N 69°39' E 018°58'0 0.0
2017-Mar-25 03:32N 69°39' E 018°58'0 0.0
2017-Mar-25 02:32N 69°39' E 018°58'0 0.0
2017-Mar-25 01:32N 69°39' E 018°58'0 0.0
2017-Mar-25 00:32N 69°39' E 018°58'0 0.0
2017-Mar-24 23:32N 69°39' E 018°58'0 0.0
2017-Mar-24 22:32N 69°39' E 018°58'0 0.0
2017-Mar-24 21:32N 69°39' E 018°58'0 0.0
2017-Mar-24 20:32N 69°39' E 018°58'0 0.0
2017-Mar-24 19:32N 69°39' E 018°58'0 0.0
2017-Mar-24 18:32N 69°39' E 018°58'0 0.0
2017-Mar-24 17:32N 69°39' E 018°58'0 0.0
2017-Mar-24 16:32N 69°39' E 018°58'0 0.0
2017-Mar-24 15:32N 69°39' E 018°58'0 0.0
2017-Mar-24 14:32N 69°39' E 018°58'0 0.0
2017-Mar-24 13:32N 69°39' E 018°58'0 0.0
2017-Mar-24 12:32N 69°39' E 018°58'0 0.0
2017-Mar-24 11:32N 69°39' E 018°58'1 0.5
2017-Mar-24 10:32N 69°39' E 018°58'0 0.0
2017-Mar-24 09:32N 69°39' E 018°58'0 0.0
2017-Mar-24 08:32N 69°39' E 018°58'0 0.2
2017-Mar-24 07:31N 69°39' E 018°59'1 0.5
2017-Mar-24 06:32N 69°39' E 018°58'0 0.0
2017-Mar-24 05:32N 69°39' E 018°58'0 0.0
2017-Mar-24 04:32N 69°39' E 018°58'0 0.0
2017-Mar-24 03:32N 69°39' E 018°58'0 0.0
2017-Mar-24 02:32N 69°39' E 018°58'0 0.0
2017-Mar-24 01:32N 69°39' E 018°58'0 0.0
2017-Mar-24 00:32N 69°39' E 018°58'0 0.0
2017-Mar-23 23:32N 69°39' E 018°58'0 0.0
2017-Mar-23 22:32N 69°39' E 018°58'0 0.0
2017-Mar-23 21:32N 69°39' E 018°58'0 0.0
2017-Mar-23 20:31N 69°39' E 018°58'0 0.0
2017-Mar-23 19:31N 69°39' E 018°58'4 3.8
2017-Mar-23 18:32N 69°42' E 019°04'0 0.0
2017-Mar-23 17:33N 69°42' E 019°04'6 5.7
2017-Mar-23 16:33N 69°47' E 019°12'1410.4
2017-Mar-23 15:10N 69°58' E 019°39'610.5
2017-Mar-23 14:33N 70°04' E 019°39'8 8.0
2017-Mar-23 13:33N 70°12' E 019°29'8 8.0
2017-Mar-23 12:33N 70°19' E 019°24'1110.5
2017-Mar-23 11:32N 70°28' E 019°05'  

Dump ship's entire track history